Time;durP1;ratioP1;P1;durP2;ratioP2;P2;SDS_P1;SDS_P2;PMS_P1;PMS_P2;Temp;Humidity;BMP_temperature;BMP_pressure;BME280_temperature;BME280_humidity;BME280_pressure;Samples;Min_cycle;Max_cycle;Signal;HPM_P1;HPM_P2
2023/10/02 00:02:41;;;;;;;19.70;9.73;;;;;;;15.75;92.62;101911.88;4965099;28;20045;-73
2023/10/02 00:05:10;;;;;;;20.52;9.57;;;;;;;15.68;92.64;101916.53;4967437;28;20373;-73
2023/10/02 00:07:44;;;;;;;17.00;9.43;;;;;;;15.63;92.98;101914.03;4967943;28;20051;-74
2023/10/02 00:10:15;;;;;;;19.17;9.13;;;;;;;15.58;92.96;101917.75;4965597;28;20140;-73
2023/10/02 00:12:58;;;;;;;18.27;8.77;;;;;;;15.55;93.26;101916.09;4968395;28;20078;-73
2023/10/02 00:15:26;;;;;;;19.38;10.18;;;;;;;15.52;93.36;101922.34;4968066;28;20042;-73
2023/10/02 00:17:53;;;;;;;20.70;9.32;;;;;;;15.50;93.59;101905.63;4968535;28;20097;-73
2023/10/02 00:20:23;;;;;;;16.73;8.85;;;;;;;15.50;93.52;101920.66;4968795;28;20050;-74
2023/10/02 00:22:50;;;;;;;17.33;10.05;;;;;;;15.48;93.72;101912.75;4969542;28;20043;-73
2023/10/02 00:25:22;;;;;;;21.63;9.82;;;;;;;15.50;94.03;101912.69;4968646;28;20130;-73
2023/10/02 00:27:51;;;;;;;22.05;11.18;;;;;;;15.52;94.12;101913.53;4970228;28;20046;-74
2023/10/02 00:30:23;;;;;;;21.70;10.27;;;;;;;15.51;94.14;101918.00;4966556;28;20094;-73
2023/10/02 00:32:51;;;;;;;20.00;10.05;;;;;;;15.55;94.23;101907.22;4967936;28;20038;-72
2023/10/02 00:35:22;;;;;;;18.48;9.88;;;;;;;15.53;94.15;101916.13;4968467;28;20039;-73
2023/10/02 00:37:52;;;;;;;19.58;10.73;;;;;;;15.51;94.57;101915.34;4968147;28;20046;-72
2023/10/02 00:40:30;;;;;;;19.92;10.70;;;;;;;15.46;94.53;101911.94;4962685;28;20051;-72
2023/10/02 00:43:33;;;;;;;20.60;10.40;;;;;;;15.43;94.61;101904.06;4967138;28;20126;-73
2023/10/02 00:45:50;;;;;;;21.98;10.00;;;;;;;15.36;94.91;101906.06;4959741;28;20047;-73
2023/10/02 00:48:26;;;;;;;22.55;9.88;;;;;;;15.34;95.14;101907.03;4965571;28;20047;-72
2023/10/02 00:51:06;;;;;;;19.13;9.93;;;;;;;15.29;95.17;101898.38;4965618;28;20046;-72
2023/10/02 00:53:38;;;;;;;20.63;9.55;;;;;;;15.23;95.31;101899.44;4962965;28;20042;-73
2023/10/02 00:56:28;;;;;;;21.40;9.82;;;;;;;15.19;95.52;101904.00;4982884;28;20043;-72
2023/10/02 00:59:00;;;;;;;20.83;10.60;;;;;;;15.15;95.54;101897.03;4949876;28;20495;-73
2023/10/02 01:01:34;;;;;;;18.23;9.48;;;;;;;15.14;95.86;101895.28;4952193;28;20038;-73
2023/10/02 01:04:10;;;;;;;20.75;10.68;;;;;;;15.14;96.00;101897.09;4968252;28;20402;-75
2023/10/02 01:09:34;;;;;;;17.15;8.98;;;;;;;15.06;96.07;101898.19;4968484;28;20067;-74
2023/10/02 01:12:01;;;;;;;21.83;9.98;;;;;;;15.04;95.98;101896.50;4966126;28;20097;-74
2023/10/02 01:17:27;;;;;;;19.25;9.95;;;;;;;14.98;96.48;101900.22;4962870;28;20062;-74
2023/10/02 01:19:57;;;;;;;17.88;9.82;;;;;;;14.96;96.79;101901.19;4968035;28;20043;-75
2023/10/02 01:22:26;;;;;;;21.23;9.57;;;;;;;14.92;96.93;101900.44;4968719;28;20034;-74
2023/10/02 01:25:13;;;;;;;18.80;9.68;;;;;;;14.88;97.26;101902.31;4966485;28;20039;-74
2023/10/02 01:27:46;;;;;;;22.55;10.68;;;;;;;14.85;96.64;101898.91;4967440;28;20594;-74
2023/10/02 01:30:16;;;;;;;19.58;9.93;;;;;;;14.82;96.96;101902.50;4967132;28;20035;-74
2023/10/02 01:33:17;;;;;;;19.05;9.90;;;;;;;14.83;97.40;101903.38;4967921;28;20050;-74
2023/10/02 01:35:51;;;;;;;20.35;10.70;;;;;;;14.82;97.32;101883.91;4966728;28;20046;-73
2023/10/02 01:38:31;;;;;;;22.08;10.55;;;;;;;14.88;97.72;101898.78;4967603;28;20046;-74
2023/10/02 01:41:03;;;;;;;21.30;11.25;;;;;;;14.89;97.72;101890.78;4967935;28;20401;-73
2023/10/02 01:43:43;;;;;;;22.33;11.07;;;;;;;14.94;97.88;101895.06;4966370;28;20043;-73
2023/10/02 01:46:18;;;;;;;20.30;10.40;;;;;;;14.97;97.95;101897.63;4996861;28;20042;-73
2023/10/02 01:48:51;;;;;;;18.70;10.48;;;;;;;15.00;97.69;101897.53;4969531;28;20074;-74
2023/10/02 01:51:26;;;;;;;20.13;11.27;;;;;;;15.03;98.13;101889.44;4967333;28;20680;-73
2023/10/02 01:54:15;;;;;;;20.05;11.10;;;;;;;15.07;98.39;101894.59;4967703;28;20043;-73
2023/10/02 01:56:47;;;;;;;23.55;11.90;;;;;;;15.08;98.11;101892.84;4968027;28;20085;-72
2023/10/02 01:59:19;;;;;;;23.60;12.35;;;;;;;15.13;98.26;101898.84;4964727;28;20086;-72
2023/10/02 02:01:52;;;;;;;22.83;11.23;;;;;;;15.14;98.43;101889.97;4966052;28;20098;-73
2023/10/02 02:04:22;;;;;;;21.52;11.73;;;;;;;15.16;98.45;101888.13;4965499;28;20059;-74
2023/10/02 02:06:56;;;;;;;23.00;11.48;;;;;;;15.20;98.52;101886.25;4961426;28;20627;-74
2023/10/02 02:09:30;;;;;;;21.85;11.52;;;;;;;15.21;98.41;101888.00;4966154;28;20050;-74
2023/10/02 02:12:14;;;;;;;20.00;11.40;;;;;;;15.21;98.45;101888.84;4967464;28;20476;-74
2023/10/02 02:14:51;;;;;;;20.02;11.07;;;;;;;15.22;98.68;101887.06;4965651;28;20039;-75
2023/10/02 02:17:25;;;;;;;21.52;11.13;;;;;;;15.21;98.20;101886.19;4965525;28;20069;-74
2023/10/02 02:20:11;;;;;;;23.75;12.02;;;;;;;15.22;98.71;101887.94;4966831;28;20074;-78
2023/10/02 02:22:38;;;;;;;20.08;10.80;;;;;;;15.21;98.74;101894.16;4966121;28;20045;-75
2023/10/02 02:25:06;;;;;;;21.20;11.70;;;;;;;15.20;98.69;101888.91;4966539;28;20039;-73
2023/10/02 02:27:33;;;;;;;18.90;9.82;;;;;;;15.16;98.15;101885.47;4966734;28;20520;-69
2023/10/02 02:30:10;;;;;;;21.50;10.93;;;;;;;15.14;98.70;101883.81;4965476;28;20042;-74
2023/10/02 02:32:43;;;;;;;23.20;10.68;;;;;;;15.08;98.09;101876.91;4962505;28;20058;-74
2023/10/02 02:35:14;;;;;;;18.42;10.15;;;;;;;15.05;98.70;101888.50;4965679;28;20042;-74
2023/10/02 02:37:43;;;;;;;19.40;10.65;;;;;;;15.02;98.80;101883.28;4967148;28;20474;-74
2023/10/02 02:40:25;;;;;;;19.85;10.10;;;;;;;15.03;98.91;101884.13;4967581;28;20065;-74
2023/10/02 02:42:56;;;;;;;20.42;10.75;;;;;;;15.02;98.70;101879.75;4966560;28;20050;-75
2023/10/02 02:45:28;;;;;;;21.42;10.85;;;;;;;14.99;98.98;101878.06;4965362;28;20042;-75
2023/10/02 02:48:04;;;;;;;21.60;11.75;;;;;;;14.96;99.01;101880.81;4966378;28;20042;-75
2023/10/02 02:50:43;;;;;;;21.20;11.32;;;;;;;14.95;99.25;101881.75;4967026;28;20046;-75
2023/10/02 02:53:21;;;;;;;23.90;11.63;;;;;;;14.95;99.31;101879.09;4963498;28;20050;-77
2023/10/02 02:56:22;;;;;;;19.38;10.90;;;;;;;14.92;99.27;101873.88;4968087;28;20565;-77
2023/10/02 02:58:56;;;;;;;23.50;11.73;;;;;;;14.91;99.38;101875.66;4966351;28;20043;-76
2023/10/02 03:01:24;;;;;;;20.15;11.15;;;;;;;14.92;99.60;101871.22;4964383;28;20141;-77
2023/10/02 03:04:10;;;;;;;23.55;10.88;;;;;;;14.90;99.78;101865.94;4964156;28;20053;-73
2023/10/02 03:06:38;;;;;;;18.88;10.23;;;;;;;14.88;99.81;101862.50;4960407;28;20411;-72
2023/10/02 03:09:08;;;;;;;21.23;10.35;;;;;;;14.89;100.00;101860.69;4966653;28;20652;-74
2023/10/02 03:11:35;;;;;;;21.60;10.73;;;;;;;14.88;99.99;101857.19;4966425;28;20043;-74
2023/10/02 03:14:12;;;;;;;24.50;11.18;;;;;;;14.87;100.00;101847.47;4965669;28;20050;-73
2023/10/02 03:16:44;;;;;;;19.92;10.77;;;;;;;14.90;100.00;101846.50;4966178;28;20046;-74
2023/10/02 03:19:13;;;;;;;19.83;11.32;;;;;;;14.88;100.00;101843.91;4967225;28;20106;-73
2023/10/02 03:21:42;;;;;;;21.98;11.68;;;;;;;14.86;100.00;101844.84;4965792;28;20038;-74
2023/10/02 03:24:12;;;;;;;21.40;10.82;;;;;;;14.85;100.00;101846.66;4967805;28;20399;-73
2023/10/02 03:26:43;;;;;;;21.48;11.63;;;;;;;14.85;100.00;101844.00;4968167;28;20062;-73
2023/10/02 03:29:21;;;;;;;22.88;11.68;;;;;;;14.86;100.00;101842.19;4965310;28;20504;-74
2023/10/02 03:31:49;;;;;;;22.90;11.43;;;;;;;14.86;100.00;101836.88;4965362;28;20416;-73
2023/10/02 03:34:32;;;;;;;20.60;11.32;;;;;;;14.86;100.00;101843.09;4964862;28;20035;-74
2023/10/02 03:39:52;;;;;;;18.63;10.50;;;;;;;14.79;100.00;101828.28;4967232;28;20058;-73
2023/10/02 03:42:22;;;;;;;22.40;11.13;;;;;;;14.80;100.00;101837.09;4957052;28;20043;-73
2023/10/02 03:44:56;;;;;;;21.70;10.15;;;;;;;14.77;100.00;101837.19;4969248;28;20447;-74
2023/10/02 03:47:30;;;;;;;22.40;10.38;;;;;;;14.75;100.00;101838.09;4968547;28;20580;-74
2023/10/02 03:50:01;;;;;;;22.40;11.20;;;;;;;14.73;100.00;101833.78;4968887;28;20407;-73
2023/10/02 03:52:33;;;;;;;21.42;10.75;;;;;;;14.73;100.00;101833.78;4969437;28;20046;-76
2023/10/02 03:55:17;;;;;;;20.35;10.35;;;;;;;14.69;100.00;101832.16;4970500;28;20062;-76
2023/10/02 03:57:52;;;;;;;21.58;10.55;;;;;;;14.66;100.00;101832.22;4968140;28;20070;-77
2023/10/02 04:00:27;;;;;;;20.48;11.52;;;;;;;14.62;100.00;101827.91;4968192;28;20043;-76
2023/10/02 04:02:56;;;;;;;;;;;;;;;14.57;100.00;101828.94;4970507;28;20039;-79
2023/10/02 04:08:22;;;;;;;24.70;11.25;;;;;;;14.48;100.00;101828.34;4969954;28;20702;-78
2023/10/02 04:10:55;;;;;;;22.50;10.95;;;;;;;14.42;100.00;101824.97;4970930;28;20043;-77
2023/10/02 04:13:35;;;;;;;23.63;12.23;;;;;;;14.41;100.00;101825.88;4970458;28;20047;-77
2023/10/02 04:18:58;;;;;;;24.50;11.77;;;;;;;14.41;100.00;101832.97;4969616;28;20647;-75
2023/10/02 04:21:27;;;;;;;17.63;10.02;;;;;;;14.39;100.00;101833.00;4969217;28;20073;-74
2023/10/02 04:23:57;;;;;;;22.17;10.63;;;;;;;14.40;100.00;101832.09;4974733;28;20050;-74
2023/10/02 04:26:28;;;;;;;22.92;10.80;;;;;;;14.33;100.00;101833.22;4971902;28;20109;-73
2023/10/02 04:29:09;;;;;;;20.55;10.63;;;;;;;14.31;100.00;101835.03;4966732;28;20042;-73
2023/10/02 04:31:41;;;;;;;20.77;10.45;;;;;;;14.28;100.00;101832.47;4962523;28;20066;-72
2023/10/02 04:34:29;;;;;;;19.58;9.75;;;;;;;14.24;100.00;101834.34;4959661;28;20069;-73
2023/10/02 04:36:57;;;;;;;20.67;10.35;;;;;;;14.20;100.00;101837.13;4966373;28;20043;-72
2023/10/02 04:42:12;;;;;;;24.95;11.75;;;;;;;14.11;100.00;101839.16;4962617;28;20121;-73
2023/10/02 04:44:46;;;;;;;21.83;11.38;;;;;;;14.08;100.00;101839.22;4959634;28;20047;-73
2023/10/02 04:47:20;;;;;;;21.45;11.73;;;;;;;14.11;100.00;101840.91;4959407;28;20161;-74
2023/10/02 04:50:39;;;;;;;20.10;11.20;;;;;;;14.11;100.00;101832.97;4960893;28;20074;-73
2023/10/02 04:53:03;;;;;;;22.58;11.52;;;;;;;14.11;100.00;101831.19;4960821;28;20055;-73
2023/10/02 04:55:42;;;;;;;20.52;10.98;;;;;;;14.11;100.00;101832.97;4961004;28;20392;-73
2023/10/02 04:58:23;;;;;;;23.55;11.65;;;;;;;14.13;100.00;101833.78;4967395;28;20046;-73
2023/10/02 05:03:54;;;;;;;21.38;12.13;;;;;;;14.13;100.00;101836.44;4967841;28;20187;-73
2023/10/02 05:09:20;;;;;;;22.02;11.50;;;;;;;14.12;100.00;101838.25;4966674;28;20739;-73
2023/10/02 05:11:52;;;;;;;22.33;11.63;;;;;;;14.10;100.00;101845.38;4968863;28;20070;-73
2023/10/02 05:14:29;;;;;;;25.75;12.00;;;;;;;14.09;100.00;101843.63;4974590;28;20154;-72
2023/10/02 05:17:19;;;;;;;22.52;11.43;;;;;;;14.10;100.00;101841.81;4967041;28;20042;-73
2023/10/02 05:20:07;;;;;;;24.92;12.77;;;;;;;14.08;100.00;101839.22;4966332;28;20102;-73
2023/10/02 05:22:36;;;;;;;22.92;12.07;;;;;;;14.08;100.00;101835.72;4965100;28;20066;-74
2023/10/02 05:25:07;;;;;;;23.45;12.93;;;;;;;14.06;100.00;101832.25;4961945;28;20335;-75
2023/10/02 05:27:37;;;;;;;21.73;12.38;;;;;;;14.06;100.00;101835.75;4966391;28;20047;-75
2023/10/02 05:30:14;;;;;;;22.50;12.25;;;;;;;14.04;100.00;101828.75;4960183;28;20059;-75
2023/10/02 05:32:41;;;;;;;22.63;11.95;;;;;;;14.07;100.00;101826.03;4954089;28;20047;-75
2023/10/02 05:37:45;;;;;;;25.08;13.02;;;;;;;14.07;100.00;101815.44;4952520;28;20044;-75
2023/10/02 05:43:49;;;;;;;25.13;12.93;;;;;;;14.07;100.00;101837.50;4960739;28;20061;-75
2023/10/02 05:48:22;;;;;;;22.42;12.20;;;;;;;14.06;100.00;101838.41;4954219;28;20046;-74
2023/10/02 05:50:52;;;;;;;22.65;12.65;;;;;;;14.07;100.00;101845.44;4955336;28;20046;-75
2023/10/02 05:53:25;;;;;;;25.30;13.75;;;;;;;14.09;100.00;101846.28;4951156;28;20043;-74
2023/10/02 05:56:05;;;;;;;25.30;12.80;;;;;;;14.13;100.00;101847.06;4956597;28;20046;-74
2023/10/02 05:58:43;;;;;;;27.58;12.95;;;;;;;14.17;100.00;101848.72;4965981;28;20046;-74
2023/10/02 06:01:26;;;;;;;19.58;11.82;;;;;;;14.21;100.00;101855.66;4950181;28;20038;-75
2023/10/02 06:04:00;;;;;;;22.67;12.55;;;;;;;14.26;100.00;101850.22;4958726;28;20046;-75
2023/10/02 06:06:35;;;;;;;26.02;13.43;;;;;;;14.28;100.00;101845.72;4961200;28;20054;-76
2023/10/02 06:09:12;;;;;;;25.73;12.60;;;;;;;14.33;100.00;101849.13;4960428;28;20093;-75
2023/10/02 06:11:59;;;;;;;27.77;12.88;;;;;;;14.35;100.00;101849.06;4966478;28;20516;-75
2023/10/02 06:14:27;;;;;;;24.27;11.52;;;;;;;14.37;100.00;101856.06;4966632;28;20057;-75
2023/10/02 06:16:54;;;;;;;22.08;11.57;;;;;;;14.42;100.00;101854.16;4964355;28;20131;-75
2023/10/02 06:19:22;;;;;;;22.95;11.93;;;;;;;14.47;100.00;101854.00;4947502;28;20047;-75
2023/10/02 06:22:04;;;;;;;22.70;12.65;;;;;;;14.54;100.00;101860.84;4965628;28;20053;-75
2023/10/02 06:24:32;;;;;;;24.00;12.07;;;;;;;14.60;100.00;101858.00;4967877;28;20051;-76
2023/10/02 06:27:04;;;;;;;21.70;12.45;;;;;;;14.69;100.00;101864.84;4967024;28;21370;-75
2023/10/02 06:29:37;;;;;;;24.48;13.27;;;;;;;14.75;100.00;101853.19;4965310;28;20449;-76
2023/10/02 06:32:09;;;;;;;23.20;12.52;;;;;;;14.80;100.00;101853.91;4965722;28;20055;-76
2023/10/02 06:34:44;;;;;;;27.02;13.77;;;;;;;14.86;100.00;101855.47;4963124;28;20066;-76
2023/10/02 06:37:19;;;;;;;;;;;;;;;14.89;100.00;101850.97;4967566;28;20061;-76
2023/10/02 06:40:03;;;;;;;;;;;;;;;14.95;100.00;101857.88;4968768;28;19922;-76
2023/10/02 06:42:32;;;;;;;24.98;12.68;;;;;;;15.05;100.00;101866.38;4966170;28;19926;-76
2023/10/02 06:45:02;;;;;;;21.13;11.43;;;;;;;15.14;100.00;101866.06;4979051;28;20485;-76
2023/10/02 06:47:31;;;;;;;26.98;12.98;;;;;;;15.23;100.00;101864.91;4981099;28;20074;-77
2023/10/02 06:53:00;;;;;;;30.05;13.73;;;;;;;15.44;100.00;101860.63;4967401;28;20058;-75
2023/10/02 06:55:29;;;;;;;26.65;13.70;;;;;;;15.54;100.00;101863.84;4965512;28;20054;-75
2023/10/02 06:57:57;;;;;;;26.20;14.05;;;;;;;15.63;100.00;101862.66;4964611;28;20035;-76
2023/10/02 07:00:36;;;;;;;25.20;13.63;;;;;;;15.71;100.00;101868.59;4963576;28;20522;-75
2023/10/02 07:03:04;;;;;;;25.42;12.88;;;;;;;15.81;100.00;101875.31;4964049;28;20090;-75
2023/10/02 07:05:34;;;;;;;28.27;14.27;;;;;;;15.89;100.00;101866.22;4963356;28;20114;-75
2023/10/02 07:08:21;;;;;;;30.55;14.43;;;;;;;15.96;100.00;101868.59;4966825;28;20050;-75
2023/10/02 07:10:48;;;;;;;24.55;12.88;;;;;;;16.03;100.00;101873.69;4966387;28;20039;-76
2023/10/02 07:13:20;;;;;;;27.00;12.70;;;;;;;16.09;100.00;101866.34;4970744;28;20050;-75
2023/10/02 07:15:55;;;;;;;23.23;12.52;;;;;;;16.17;100.00;101871.38;4975796;28;20130;-74
2023/10/02 07:18:37;;;;;;;30.50;13.88;;;;;;;16.26;100.00;101870.16;4964155;28;20053;-75
2023/10/02 07:21:09;;;;;;;25.02;13.75;;;;;;;16.34;100.00;101867.19;4968567;28;20262;-75
2023/10/02 07:23:40;;;;;;;24.33;12.68;;;;;;;16.42;100.00;101866.00;4969103;28;20066;-74
2023/10/02 07:26:49;;;;;;;22.63;13.23;;;;;;;16.57;99.96;101871.63;4971112;28;20443;-76
2023/10/02 07:29:19;;;;;;;32.28;14.55;;;;;;;16.66;100.00;101868.59;4970417;28;20265;-76
2023/10/02 07:31:47;;;;;;;25.23;13.15;;;;;;;16.79;99.72;101862.78;4971634;28;20035;-75
2023/10/02 07:34:15;;;;;;;22.17;12.75;;;;;;;16.87;99.05;101872.22;4970297;28;20082;-76
2023/10/02 07:36:46;;;;;;;34.15;13.05;;;;;;;16.93;98.87;101860.44;4969882;28;20043;-77
2023/10/02 07:42:00;;;;;;;25.08;13.27;;;;;;;17.10;97.74;101866.91;4970890;28;20043;-76
2023/10/02 07:44:36;;;;;;;26.75;13.18;;;;;;;17.16;97.35;101867.50;4976563;28;20138;-76
2023/10/02 07:47:10;;;;;;;26.05;12.68;;;;;;;17.31;96.94;101867.78;4969991;28;20150;-76
2023/10/02 07:49:39;;;;;;;;;;;;;;;17.41;97.24;101865.59;4970064;28;20495;-76
2023/10/02 07:52:08;;;;;;;28.20;13.35;;;;;;;17.52;96.78;101872.19;4969950;28;19926;-76
2023/10/02 07:54:44;;;;;;;26.65;13.38;;;;;;;17.62;96.36;101867.34;4970252;28;20043;-75
2023/10/02 07:57:13;;;;;;;24.00;13.60;;;;;;;17.75;96.06;101869.47;4970585;28;20387;-76
2023/10/02 07:59:43;;;;;;;24.10;13.30;;;;;;;17.85;95.76;101865.47;4971428;28;20126;-75
2023/10/02 08:02:44;;;;;;;25.63;12.25;;;;;;;18.00;95.73;101870.13;4970097;28;20129;-76
2023/10/02 08:05:05;;;;;;;30.02;13.00;;;;;;;18.20;95.49;101864.81;4970046;28;20768;-75
2023/10/02 08:07:34;;;;;;;24.70;12.48;;;;;;;18.41;94.44;101858.47;4968718;28;20053;-75
2023/10/02 08:10:15;;;;;;;32.13;13.98;;;;;;;18.71;93.64;101860.63;4969178;28;20487;-75
2023/10/02 08:12:54;;;;;;;27.48;12.82;;;;;;;18.97;93.42;101853.16;4970825;28;20042;-76
2023/10/02 08:15:26;;;;;;;30.33;12.82;;;;;;;19.16;92.50;101853.09;4988895;28;20046;-75
2023/10/02 08:20:32;;;;;;;29.23;12.57;;;;;;;19.36;91.84;101857.41;4984636;28;20042;-75
2023/10/02 08:23:02;;;;;;;27.30;13.30;;;;;;;19.41;91.62;101857.16;4969784;28;20047;-75
2023/10/02 08:25:33;;;;;;;24.88;12.90;;;;;;;19.42;90.93;101855.38;4967823;28;20046;-76
2023/10/02 08:28:00;;;;;;;26.67;13.27;;;;;;;19.42;90.18;101855.38;4966858;28;20046;-76
2023/10/02 08:30:31;;;;;;;27.45;12.35;;;;;;;19.43;90.39;101854.44;4969574;28;20042;-76
2023/10/02 08:33:09;;;;;;;24.38;11.95;;;;;;;19.49;89.94;101862.97;4977752;28;20061;-76
2023/10/02 08:35:51;;;;;;;23.65;11.07;;;;;;;19.57;89.39;101859.06;4966576;28;20065;-74
2023/10/02 08:38:21;;;;;;;25.77;12.77;;;;;;;19.66;89.30;101859.44;4967216;28;20050;-74
2023/10/02 08:40:57;;;;;;;27.40;14.32;;;;;;;19.77;89.37;101856.22;4953397;28;20122;-74
2023/10/02 08:43:32;;;;;;;26.95;13.13;;;;;;;19.95;88.84;101869.56;4968070;28;20107;-75
2023/10/02 08:45:59;;;;;;;26.52;12.25;;;;;;;20.14;88.25;101872.13;4968849;28;20051;-74
2023/10/02 08:48:31;;;;;;;27.13;13.15;;;;;;;20.24;88.00;101875.16;4969799;28;20042;-74
2023/10/02 08:50:59;;;;;;;26.30;12.15;;;;;;;20.33;85.49;101870.16;4966710;28;20043;-75
2023/10/02 08:53:27;;;;;;;30.30;13.57;;;;;;;20.41;84.93;101869.72;4962405;28;20379;-74
2023/10/02 08:56:00;;;;;;;23.42;12.27;;;;;;;20.49;83.64;101871.97;4965121;28;20502;-74
2023/10/02 08:58:29;;;;;;;22.02;11.18;;;;;;;20.55;83.99;101857.38;4968400;28;20503;-75
2023/10/02 09:06:44;;;;;;;23.92;12.38;;;;;;;20.94;82.05;101862.31;4965396;28;20053;-74
2023/10/02 09:12:03;;;;;;;28.58;11.75;;;;;;;21.19;81.05;101860.00;4968202;28;20094;-75
2023/10/02 09:17:12;;;;;;;27.30;12.05;;;;;;;21.43;80.99;101857.66;4974322;28;20389;-76
2023/10/02 09:19:48;;;;;;;24.55;12.73;;;;;;;21.61;80.43;101858.41;4965268;28;20074;-75
2023/10/02 09:22:17;;;;;;;21.08;11.45;;;;;;;21.78;79.44;101856.50;4966952;28;20039;-76
2023/10/02 09:24:58;;;;;;;38.00;12.80;;;;;;;21.87;78.36;101854.06;4967016;28;20081;-76
2023/10/02 09:27:27;;;;;;;27.70;11.88;;;;;;;21.89;77.65;101845.94;4966529;28;20574;-76
2023/10/02 09:32:49;;;;;;;24.10;11.63;;;;;;;21.93;78.37;101852.84;4968029;28;20038;-74
2023/10/02 09:35:50;;;;;;;27.33;11.85;;;;;;;21.93;77.80;101847.47;4967659;28;20054;-75
2023/10/02 09:38:42;;;;;;;27.67;12.00;;;;;;;21.94;78.62;101842.97;4958147;28;20141;-76
2023/10/02 09:41:16;;;;;;;25.70;12.30;;;;;;;21.94;78.36;101845.66;4967177;28;20548;-75
2023/10/02 09:43:44;;;;;;;27.85;12.65;;;;;;;21.93;77.91;101844.78;4977997;28;20492;-76
2023/10/02 09:46:20;;;;;;;29.05;12.93;;;;;;;21.90;77.75;101841.44;4968202;28;20435;-74
2023/10/02 09:49:21;;;;;;;30.90;12.35;;;;;;;21.91;77.83;101843.16;4967370;28;20053;-75
2023/10/02 09:52:23;;;;;;;30.85;12.75;;;;;;;21.86;77.97;101838.97;4964446;28;20109;-75
2023/10/02 09:55:27;;;;;;;25.98;12.65;;;;;;;21.87;77.30;101837.13;4966344;28;20047;-74
2023/10/02 09:57:56;;;;;;;24.55;12.15;;;;;;;21.86;77.93;101838.09;4964471;28;20062;-75
2023/10/02 10:00:36;;;;;;;25.77;11.63;;;;;;;21.88;78.05;101828.97;4966466;28;20043;-75
2023/10/02 10:03:24;;;;;;;24.10;11.43;;;;;;;21.89;77.93;101824.47;4948862;28;20050;-74
2023/10/02 10:06:06;;;;;;;25.73;12.52;;;;;;;21.91;76.95;101827.06;4962987;28;20414;-75
2023/10/02 10:11:44;;;;;;;26.45;12.10;;;;;;;21.92;77.38;101829.66;4964415;28;21081;-75
2023/10/02 10:14:37;;;;;;;27.95;11.88;;;;;;;22.06;77.16;101831.47;4967615;28;20515;-76
2023/10/02 10:17:49;;;;;;;27.17;12.77;;;;;;;21.99;77.07;101825.63;4970536;28;20126;-76
2023/10/02 10:20:22;;;;;;;28.67;12.95;;;;;;;21.98;77.30;101831.06;4952944;28;20059;-76
2023/10/02 10:22:56;;;;;;;24.92;11.57;;;;;;;22.05;77.06;101823.50;4966137;28;20413;-76
2023/10/02 10:25:25;;;;;;;29.45;13.38;;;;;;;21.96;77.47;101833.00;4966576;28;20035;-75
2023/10/02 10:27:54;;;;;;;30.50;13.55;;;;;;;21.91;77.85;101827.94;4966961;28;20043;-75
2023/10/02 10:33:26;;;;;;;35.65;13.25;;;;;;;21.88;77.83;101836.16;4966284;28;20499;-75
2023/10/02 10:35:55;;;;;;;49.97;14.48;;;;;;;21.90;77.85;101836.94;4966928;28;20050;-76
2023/10/02 10:38:25;;;;;;;38.30;14.10;;;;;;;21.94;77.88;101830.41;4967118;28;20447;-75
2023/10/02 10:41:00;;;;;;;33.05;13.15;;;;;;;22.01;77.79;101822.84;4964952;28;20062;-75
2023/10/02 10:46:16;;;;;;;31.67;13.18;;;;;;;22.33;76.70;101814.53;4967609;28;20065;-76
2023/10/02 10:48:48;;;;;;;45.30;15.35;;;;;;;22.53;76.79;101818.66;4966366;28;20046;-75
2023/10/02 10:51:21;;;;;;;32.13;13.23;;;;;;;22.73;76.62;101809.25;4966776;28;20046;-76
2023/10/02 10:53:54;;;;;;;42.83;13.73;;;;;;;22.99;75.30;101812.03;4964098;28;20073;-76
2023/10/02 10:56:22;;;;;;;27.80;13.10;;;;;;;23.07;75.27;101817.75;4966676;28;20043;-75
2023/10/02 10:59:13;;;;;;;27.65;13.32;;;;;;;23.09;74.20;101814.94;4967141;28;20070;-75
2023/10/02 11:02:13;;;;;;;29.65;13.25;;;;;;;23.05;73.53;101814.28;4965882;28;20043;-76
2023/10/02 11:04:47;;;;;;;25.17;12.05;;;;;;;23.01;73.99;101809.22;4965030;28;20411;-77
2023/10/02 11:07:19;;;;;;;24.77;11.93;;;;;;;22.99;74.16;101817.41;4965796;28;20046;-75
2023/10/02 11:10:14;;;;;;;29.55;12.88;;;;;;;23.16;73.92;101807.31;4964452;28;20039;-77
2023/10/02 11:12:56;;;;;;;29.98;13.15;;;;;;;23.29;74.03;101807.34;4961423;28;20828;-75
2023/10/02 11:15:48;;;;;;;28.33;13.00;;;;;;;23.33;73.84;101809.72;4968774;28;20050;-76
2023/10/02 11:18:18;;;;;;;28.08;12.77;;;;;;;23.34;74.21;101797.16;4950038;28;20043;-75
2023/10/02 11:20:55;;;;;;;25.45;12.35;;;;;;;23.39;73.89;101801.25;4966222;28;20406;-74
2023/10/02 11:23:38;;;;;;;36.15;13.18;;;;;;;23.52;74.04;101792.28;4965642;28;20055;-72
2023/10/02 11:26:11;;;;;;;26.90;12.10;;;;;;;23.55;73.30;101786.69;4966084;28;20121;-73
2023/10/02 11:28:49;;;;;;;36.75;12.90;;;;;;;23.51;73.00;101786.06;4966454;28;20109;-71
2023/10/02 11:31:38;;;;;;;36.05;13.13;;;;;;;23.49;73.48;101788.00;4963560;28;20366;-77
2023/10/02 11:34:11;;;;;;;31.08;12.90;;;;;;;23.46;73.24;101782.81;4964716;28;20425;-73
2023/10/02 11:36:52;;;;;;;36.35;12.77;;;;;;;23.43;73.48;101777.69;4965913;28;20046;-74
2023/10/02 11:39:20;;;;;;;36.47;13.35;;;;;;;23.41;73.78;101768.84;4964614;28;20455;-71
2023/10/02 11:41:48;;;;;;;34.63;14.27;;;;;;;23.43;74.03;101774.97;4963246;28;20098;-72
2023/10/02 11:44:16;;;;;;;34.78;13.93;;;;;;;23.49;73.77;101769.16;4982406;28;20061;-74
2023/10/02 11:46:43;;;;;;;30.48;13.02;;;;;;;23.55;73.59;101766.03;4986134;28;20132;-76
2023/10/02 11:49:11;;;;;;;27.33;13.48;;;;;;;23.60;73.79;101762.16;4968670;28;20121;-76
2023/10/02 11:51:38;;;;;;;32.53;13.77;;;;;;;23.68;73.91;101763.34;4966520;28;20322;-75
2023/10/02 11:54:09;;;;;;;30.52;12.90;;;;;;;23.76;73.37;101746.63;4963876;28;20031;-76
2023/10/02 11:56:38;;;;;;;32.42;12.95;;;;;;;23.83;73.39;101757.81;4966043;28;20045;-74
2023/10/02 11:59:07;;;;;;;34.47;13.75;;;;;;;23.96;73.62;101753.28;4966456;28;20047;-75
2023/10/02 12:01:35;;;;;;;34.75;13.27;;;;;;;24.27;72.77;101755.53;4969629;28;20043;-75
2023/10/02 12:04:04;;;;;;;29.27;12.60;;;;;;;24.49;72.10;101755.66;4968700;28;20061;-75
2023/10/02 12:06:32;;;;;;;33.63;13.93;;;;;;;24.69;72.12;101752.47;4970641;28;20097;-75
2023/10/02 12:09:01;;;;;;;32.15;12.85;;;;;;;24.84;71.64;101750.44;4969564;28;20050;-76
2023/10/02 12:11:36;;;;;;;32.10;11.98;;;;;;;24.98;70.58;101750.22;4970216;28;20054;-76
2023/10/02 12:14:04;;;;;;;27.00;12.50;;;;;;;25.15;70.25;101743.50;4968656;28;20046;-76
2023/10/02 12:16:31;;;;;;;23.85;10.80;;;;;;;25.24;68.56;101750.03;4988676;28;20042;-75
2023/10/02 12:18:58;;;;;;;25.25;11.30;;;;;;;25.33;68.75;101741.22;4967525;28;20098;-75
2023/10/02 12:21:25;;;;;;;29.45;11.30;;;;;;;25.41;68.74;101737.94;4962975;28;20070;-74
2023/10/02 12:23:52;;;;;;;22.00;10.05;;;;;;;25.47;68.69;101739.28;4969569;28;20143;-75
2023/10/02 12:26:24;;;;;;;23.40;10.73;;;;;;;25.48;68.31;101741.84;4968581;28;20038;-75
2023/10/02 12:28:55;;;;;;;22.70;11.02;;;;;;;25.42;67.58;101739.66;4966583;28;20093;-74
2023/10/02 12:31:23;;;;;;;25.60;11.20;;;;;;;25.41;67.24;101730.69;4967843;28;20039;-74
2023/10/02 12:33:53;;;;;;;23.30;11.02;;;;;;;25.36;67.96;101730.19;4958193;28;20146;-74
2023/10/02 12:36:23;;;;;;;23.48;10.20;;;;;;;25.33;68.11;101722.31;4965862;28;20506;-74
2023/10/02 12:38:50;;;;;;;24.65;10.77;;;;;;;25.31;67.99;101726.97;4954359;28;20046;-73
2023/10/02 12:41:21;;;;;;;26.10;10.80;;;;;;;25.30;68.12;101721.72;4962393;28;20124;-75
2023/10/02 12:43:58;;;;;;;29.80;11.13;;;;;;;25.21;68.14;101723.28;4966613;28;20074;-75
2023/10/02 12:46:28;;;;;;;24.63;11.30;;;;;;;25.15;68.26;101724.63;4966031;28;20488;-75